createdAt,value
2022-08-31T00:02:42.226Z,1.30
2022-08-31T00:05:10.456Z,1.20
2022-08-31T00:07:37.326Z,1.35
2022-08-31T00:10:14.690Z,1.20
2022-08-31T00:12:47.427Z,1.27
2022-08-31T00:15:19.466Z,1.10
2022-08-31T00:17:49.993Z,1.20
2022-08-31T00:20:32.550Z,1.30
2022-08-31T00:23:09.184Z,1.38
2022-08-31T00:25:37.373Z,1.20
2022-08-31T00:28:05.284Z,1.13
2022-08-31T00:30:32.279Z,1.45
2022-08-31T00:32:59.156Z,1.25
2022-08-31T00:35:31.374Z,1.30
2022-08-31T00:37:58.045Z,1.33
2022-08-31T00:40:25.707Z,1.42
2022-08-31T00:42:52.389Z,1.38
2022-08-31T00:45:19.193Z,1.23
2022-08-31T00:47:45.800Z,1.20
2022-08-31T00:50:15.764Z,1.20
2022-08-31T00:52:48.363Z,1.10
2022-08-31T00:55:37.439Z,1.25
2022-08-31T00:58:09.002Z,1.17
2022-08-31T01:00:36.214Z,1.00
2022-08-31T01:03:05.617Z,1.10
2022-08-31T01:05:33.157Z,1.30
2022-08-31T01:08:00.994Z,1.15
2022-08-31T01:10:31.829Z,1.17
2022-08-31T01:12:59.042Z,1.00
2022-08-31T01:15:28.458Z,1.17
2022-08-31T01:17:57.219Z,1.20
2022-08-31T01:21:04.259Z,1.30
2022-08-31T01:23:38.900Z,1.40
2022-08-31T01:26:08.159Z,1.20
2022-08-31T01:28:34.690Z,1.20
2022-08-31T01:31:30.073Z,1.40
2022-08-31T01:33:57.477Z,1.20
2022-08-31T01:36:25.093Z,1.13
2022-08-31T01:38:53.276Z,1.05
2022-08-31T01:41:20.430Z,1.20
2022-08-31T01:43:47.069Z,1.20
2022-08-31T01:46:14.097Z,1.10
2022-08-31T01:48:43.391Z,1.10
2022-08-31T01:51:12.378Z,1.17
2022-08-31T01:53:40.295Z,1.02
2022-08-31T01:56:20.675Z,1.00
2022-08-31T01:58:47.214Z,1.35
2022-08-31T02:01:34.034Z,1.15
2022-08-31T02:04:02.503Z,1.23
2022-08-31T02:06:29.076Z,1.00
2022-08-31T02:08:55.707Z,1.30
2022-08-31T02:11:22.233Z,1.30
2022-08-31T02:13:48.762Z,1.20
2022-08-31T02:16:15.633Z,1.23
2022-08-31T02:18:42.615Z,1.15
2022-08-31T02:21:09.177Z,1.20
2022-08-31T02:23:35.703Z,1.20
2022-08-31T02:26:02.219Z,1.23
2022-08-31T02:28:28.813Z,1.40
2022-08-31T02:30:55.451Z,1.00
2022-08-31T02:33:22.234Z,0.98
2022-08-31T02:35:50.328Z,1.10
2022-08-31T02:38:22.883Z,0.90
2022-08-31T02:40:51.255Z,1.20
2022-08-31T02:43:24.925Z,1.17
2022-08-31T02:45:53.470Z,1.08
2022-08-31T02:48:21.515Z,1.35
2022-08-31T02:50:51.102Z,1.00
2022-08-31T02:53:20.609Z,1.15
2022-08-31T02:55:47.239Z,1.27
2022-08-31T02:58:14.990Z,1.08
2022-08-31T03:00:46.681Z,0.90
2022-08-31T03:03:13.892Z,1.13
2022-08-31T03:05:41.009Z,1.20
2022-08-31T03:08:07.922Z,1.05
2022-08-31T03:10:34.706Z,1.20
2022-08-31T03:13:01.349Z,1.10
2022-08-31T03:15:28.615Z,1.08
2022-08-31T03:17:55.382Z,0.90
2022-08-31T03:20:23.674Z,1.20
2022-08-31T03:22:50.781Z,1.17
2022-08-31T03:25:19.781Z,0.93
2022-08-31T03:27:46.349Z,1.17
2022-08-31T03:30:17.433Z,1.00
2022-08-31T03:32:45.534Z,0.90
2022-08-31T03:35:12.700Z,1.10
2022-08-31T03:37:39.244Z,1.20
2022-08-31T03:40:06.497Z,1.00
2022-08-31T03:42:33.053Z,1.30
2022-08-31T03:44:59.599Z,1.00
2022-08-31T03:47:28.312Z,1.00
2022-08-31T03:49:55.075Z,0.90
2022-08-31T03:52:21.871Z,0.98
2022-08-31T03:54:48.461Z,1.02
2022-08-31T03:57:15.015Z,1.10
2022-08-31T03:59:41.558Z,1.10
2022-08-31T04:02:08.167Z,0.90
2022-08-31T04:04:35.075Z,1.10
2022-08-31T04:07:01.655Z,1.27
2022-08-31T04:09:28.309Z,0.90
2022-08-31T04:11:54.928Z,1.00
2022-08-31T04:14:21.497Z,1.10
2022-08-31T04:16:48.027Z,1.00
2022-08-31T04:19:16.124Z,1.15
2022-08-31T04:21:44.478Z,1.00
2022-08-31T04:24:12.186Z,1.10
2022-08-31T04:26:41.020Z,1.10
2022-08-31T04:29:13.128Z,1.10
2022-08-31T04:31:40.651Z,0.85
2022-08-31T04:34:07.224Z,1.00
2022-08-31T04:36:33.822Z,0.90
2022-08-31T04:39:02.036Z,0.90
2022-08-31T04:41:30.946Z,0.90
2022-08-31T04:43:59.760Z,1.00
2022-08-31T04:46:26.867Z,0.90
2022-08-31T04:48:53.808Z,0.85
2022-08-31T04:51:23.456Z,1.13
2022-08-31T04:53:54.418Z,0.95
2022-08-31T04:56:26.842Z,1.10
2022-08-31T04:59:06.098Z,1.00
2022-08-31T05:01:38.657Z,1.17
2022-08-31T05:04:10.507Z,1.10
2022-08-31T05:06:39.951Z,0.98
2022-08-31T05:09:10.950Z,1.00
2022-08-31T05:11:38.108Z,1.20
2022-08-31T05:14:06.836Z,1.10
2022-08-31T05:16:34.618Z,1.20
2022-08-31T05:19:01.825Z,1.40
2022-08-31T05:21:32.104Z,1.30
2022-08-31T05:24:04.622Z,1.20
2022-08-31T05:26:34.539Z,1.60
2022-08-31T05:29:03.639Z,1.67
2022-08-31T05:31:33.479Z,1.80
2022-08-31T05:34:00.615Z,1.90
2022-08-31T05:36:27.250Z,2.45
2022-08-31T05:38:57.622Z,2.40
2022-08-31T05:41:28.410Z,3.08
2022-08-31T05:43:54.940Z,2.47
2022-08-31T05:46:21.627Z,2.40
2022-08-31T05:48:49.436Z,2.67
2022-08-31T05:51:18.116Z,2.03
2022-08-31T05:53:45.821Z,2.22
2022-08-31T05:56:16.447Z,2.47
2022-08-31T05:58:46.873Z,2.60
2022-08-31T06:01:19.202Z,2.90
2022-08-31T06:03:47.403Z,2.70
2022-08-31T06:06:14.543Z,3.08
2022-08-31T06:08:42.541Z,3.08
2022-08-31T06:11:18.671Z,3.55
2022-08-31T06:13:46.614Z,3.28
2022-08-31T06:16:14.257Z,2.92
2022-08-31T06:18:42.008Z,3.17
2022-08-31T06:21:12.595Z,3.13
2022-08-31T06:23:42.478Z,3.25
2022-08-31T06:26:13.119Z,2.92
2022-08-31T06:28:40.599Z,3.00
2022-08-31T06:31:14.669Z,3.10
2022-08-31T06:33:41.987Z,2.97
2022-08-31T06:36:14.061Z,2.72
2022-08-31T06:38:43.446Z,2.80
2022-08-31T06:41:18.666Z,2.60
2022-08-31T06:43:46.340Z,2.60
2022-08-31T06:46:14.239Z,2.90
2022-08-31T06:48:41.002Z,3.38
2022-08-31T06:51:09.207Z,2.60
2022-08-31T06:53:40.192Z,3.15
2022-08-31T06:56:20.332Z,2.95
2022-08-31T06:58:49.348Z,2.78
2022-08-31T07:01:34.873Z,3.10
2022-08-31T07:04:06.080Z,2.70
2022-08-31T07:06:36.877Z,2.88
2022-08-31T07:09:06.526Z,2.60
2022-08-31T07:11:43.704Z,2.63
2022-08-31T07:14:13.574Z,2.90
2022-08-31T07:16:40.749Z,2.70
2022-08-31T07:19:07.678Z,2.63
2022-08-31T07:21:40.218Z,2.75
2022-08-31T07:24:07.518Z,2.75
2022-08-31T07:26:39.928Z,2.80
2022-08-31T07:29:07.747Z,2.70
2022-08-31T07:31:46.421Z,2.67
2022-08-31T07:34:28.576Z,2.22
2022-08-31T07:37:15.619Z,2.60
2022-08-31T07:40:06.795Z,2.38
2022-08-31T07:42:38.899Z,2.67
2022-08-31T07:45:12.635Z,2.10
2022-08-31T07:47:45.449Z,2.33
2022-08-31T07:50:13.362Z,2.10
2022-08-31T07:52:48.566Z,2.20
2022-08-31T07:55:17.832Z,2.17
2022-08-31T07:57:44.802Z,2.25
2022-08-31T08:00:20.733Z,2.30
2022-08-31T08:02:52.735Z,2.05
2022-08-31T08:05:26.951Z,2.38
2022-08-31T08:07:55.826Z,2.22
2022-08-31T08:10:24.382Z,2.20
2022-08-31T08:12:58.307Z,1.90
2022-08-31T08:15:27.143Z,2.05
2022-08-31T08:17:53.767Z,2.20
2022-08-31T08:20:34.043Z,2.00
2022-08-31T08:23:14.525Z,2.20
2022-08-31T08:25:43.161Z,1.98
2022-08-31T08:28:38.090Z,2.25
2022-08-31T08:31:04.773Z,1.90
2022-08-31T08:33:33.460Z,1.80
2022-08-31T08:36:03.249Z,2.05
2022-08-31T08:38:31.509Z,2.13
2022-08-31T08:41:05.183Z,1.95
2022-08-31T08:43:36.411Z,2.00
2022-08-31T08:46:31.340Z,1.77
2022-08-31T08:49:00.455Z,1.83
2022-08-31T08:51:36.022Z,2.00
2022-08-31T08:54:09.807Z,1.73
2022-08-31T08:56:42.029Z,1.63
2022-08-31T08:59:15.792Z,1.80
2022-08-31T09:01:47.895Z,1.67
2022-08-31T09:04:20.508Z,1.88
2022-08-31T09:07:18.917Z,1.80
2022-08-31T09:09:57.337Z,1.50
2022-08-31T09:12:36.148Z,1.48
2022-08-31T09:15:15.419Z,1.45
2022-08-31T09:17:54.893Z,1.42
2022-08-31T09:20:24.106Z,1.80
2022-08-31T09:22:56.075Z,1.50
2022-08-31T09:25:33.086Z,1.60
2022-08-31T09:28:02.964Z,1.17
2022-08-31T09:30:44.817Z,1.42
2022-08-31T09:33:27.238Z,1.40
2022-08-31T09:36:13.613Z,1.50
2022-08-31T09:38:40.553Z,1.30
2022-08-31T09:41:25.377Z,1.70
2022-08-31T09:43:51.967Z,1.42
2022-08-31T09:46:29.514Z,1.40
2022-08-31T09:48:58.918Z,1.23
2022-08-31T09:51:31.412Z,1.40
2022-08-31T09:54:41.025Z,1.45
2022-08-31T09:57:11.005Z,1.52
2022-08-31T09:59:45.012Z,1.35
2022-08-31T10:02:26.668Z,1.20
2022-08-31T10:05:04.394Z,1.40
2022-08-31T10:07:38.549Z,1.08
2022-08-31T10:10:30.068Z,1.23
2022-08-31T10:13:04.179Z,1.42
2022-08-31T10:15:42.705Z,1.40
2022-08-31T10:18:18.864Z,1.35
2022-08-31T10:21:07.870Z,1.23
2022-08-31T10:23:54.614Z,1.20
2022-08-31T10:26:35.999Z,1.23
2022-08-31T10:29:19.146Z,1.40
2022-08-31T10:31:53.736Z,0.93
2022-08-31T10:34:48.537Z,1.27
2022-08-31T10:37:20.561Z,1.23
2022-08-31T10:39:51.692Z,1.20
2022-08-31T10:42:32.440Z,1.27
2022-08-31T10:45:10.480Z,1.30
2022-08-31T10:47:43.329Z,1.23
2022-08-31T10:50:13.757Z,1.15
2022-08-31T10:53:02.923Z,1.30
2022-08-31T10:55:56.202Z,1.17
2022-08-31T10:58:31.202Z,1.05
2022-08-31T11:01:16.940Z,1.05
2022-08-31T11:03:56.351Z,1.15
2022-08-31T11:06:48.220Z,0.98
2022-08-31T11:09:33.653Z,1.00
2022-08-31T11:12:07.263Z,1.23
2022-08-31T11:14:49.789Z,1.10
2022-08-31T11:17:47.557Z,1.00
2022-08-31T11:20:40.916Z,1.27
2022-08-31T11:23:26.957Z,1.20
2022-08-31T11:26:12.624Z,1.23
2022-08-31T11:28:48.999Z,1.17
2022-08-31T11:31:25.644Z,1.23
2022-08-31T11:34:15.018Z,1.17
2022-08-31T11:36:57.468Z,1.10
2022-08-31T11:39:40.233Z,1.33
2022-08-31T11:42:13.328Z,1.20
2022-08-31T11:44:41.707Z,1.10
2022-08-31T11:47:28.596Z,1.20
2022-08-31T11:50:05.637Z,1.23
2022-08-31T11:52:48.443Z,1.02
2022-08-31T11:55:26.883Z,1.15
2022-08-31T11:58:06.311Z,1.00
2022-08-31T12:01:01.713Z,1.10
2022-08-31T12:03:35.375Z,1.10
2022-08-31T12:06:01.983Z,1.30
2022-08-31T12:08:49.549Z,1.10
2022-08-31T12:11:22.783Z,1.10
2022-08-31T12:14:17.599Z,1.00
2022-08-31T12:17:02.139Z,1.10
2022-08-31T12:19:55.819Z,1.17
2022-08-31T12:23:31.208Z,1.10
2022-08-31T12:26:23.234Z,1.05
2022-08-31T12:29:20.993Z,1.10
2022-08-31T12:32:11.821Z,1.27
2022-08-31T12:34:56.946Z,0.95
2022-08-31T12:37:23.525Z,1.10
2022-08-31T12:40:10.951Z,1.15
2022-08-31T12:43:00.394Z,1.00
2022-08-31T12:46:04.152Z,1.00
2022-08-31T12:48:50.575Z,1.17
2022-08-31T12:51:39.867Z,1.02
2022-08-31T12:54:37.159Z,1.10
2022-08-31T12:57:24.955Z,1.00
2022-08-31T13:00:03.686Z,1.10
2022-08-31T13:02:33.184Z,1.00
2022-08-31T13:05:02.348Z,1.13
2022-08-31T13:07:33.962Z,0.90
2022-08-31T13:10:14.087Z,0.90
2022-08-31T13:12:48.977Z,1.08
2022-08-31T13:15:25.257Z,1.35
2022-08-31T13:17:53.082Z,1.10
2022-08-31T13:20:21.831Z,1.10
2022-08-31T13:22:57.085Z,0.90
2022-08-31T13:25:35.826Z,1.30
2022-08-31T13:28:12.486Z,1.20
2022-08-31T13:30:41.507Z,1.10
2022-08-31T13:33:25.020Z,1.00
2022-08-31T13:35:56.421Z,1.10
2022-08-31T13:38:40.080Z,0.80
2022-08-31T13:41:18.224Z,1.30
2022-08-31T13:43:53.923Z,1.02
2022-08-31T13:46:37.646Z,0.80
2022-08-31T13:49:26.058Z,0.90
2022-08-31T13:51:52.931Z,0.88
2022-08-31T13:54:32.267Z,0.80
2022-08-31T13:57:19.626Z,0.98
2022-08-31T13:59:47.255Z,1.20
2022-08-31T14:02:16.564Z,0.90
2022-08-31T14:04:49.466Z,1.10
2022-08-31T14:07:21.709Z,1.02
2022-08-31T14:09:58.397Z,1.00
2022-08-31T14:12:36.734Z,1.00
2022-08-31T14:15:17.618Z,1.10
2022-08-31T14:20:44.143Z,0.90
2022-08-31T14:23:26.068Z,0.90
2022-08-31T14:25:53.844Z,0.98
2022-08-31T14:28:24.094Z,1.05
2022-08-31T14:30:51.488Z,0.98
2022-08-31T14:33:20.084Z,1.00
2022-08-31T14:35:46.929Z,1.00
2022-08-31T14:38:15.317Z,0.82
2022-08-31T14:40:46.080Z,0.93
2022-08-31T14:43:18.134Z,0.85
2022-08-31T14:45:44.964Z,1.00
2022-08-31T14:48:14.458Z,1.10
2022-08-31T14:50:41.014Z,1.30
2022-08-31T14:53:11.312Z,0.90
2022-08-31T14:55:40.844Z,0.93
2022-08-31T14:58:12.898Z,0.90
2022-08-31T15:00:48.683Z,0.77
2022-08-31T15:03:24.249Z,0.93
2022-08-31T15:05:51.283Z,1.02
2022-08-31T15:08:23.237Z,1.00
2022-08-31T15:11:06.180Z,0.90
2022-08-31T15:13:34.052Z,1.20
2022-08-31T15:16:04.061Z,0.95
2022-08-31T15:18:33.780Z,1.20
2022-08-31T15:21:03.044Z,0.80
2022-08-31T15:23:31.185Z,0.98
2022-08-31T15:26:10.122Z,0.93
2022-08-31T15:28:41.899Z,0.80
2022-08-31T15:31:11.955Z,1.08
2022-08-31T15:33:40.242Z,0.80
2022-08-31T15:36:10.397Z,0.82
2022-08-31T15:38:39.619Z,0.90
2022-08-31T15:41:07.125Z,1.10
2022-08-31T15:43:35.845Z,0.90
2022-08-31T15:46:02.666Z,0.90
2022-08-31T15:48:47.302Z,1.00
2022-08-31T15:51:21.839Z,0.90
2022-08-31T15:54:06.491Z,1.00
2022-08-31T15:56:40.866Z,0.88
2022-08-31T15:59:10.108Z,0.90
2022-08-31T16:01:37.963Z,0.80
2022-08-31T16:04:05.550Z,1.00
2022-08-31T16:06:35.251Z,0.80
2022-08-31T16:09:02.748Z,0.85
2022-08-31T16:11:33.575Z,0.90
2022-08-31T16:14:04.624Z,1.08
2022-08-31T16:16:36.934Z,0.90
2022-08-31T16:19:04.554Z,0.90
2022-08-31T16:21:34.494Z,0.73
2022-08-31T16:24:04.210Z,0.85
2022-08-31T16:26:35.136Z,1.00
2022-08-31T16:29:02.909Z,0.80
2022-08-31T16:31:30.912Z,0.82
2022-08-31T16:33:57.596Z,0.80
2022-08-31T16:36:26.095Z,1.10
2022-08-31T16:38:56.829Z,0.90
2022-08-31T16:41:26.406Z,0.90
2022-08-31T16:44:18.555Z,0.98
2022-08-31T16:46:45.995Z,0.80
2022-08-31T16:49:30.881Z,0.90
2022-08-31T16:52:00.705Z,0.80
2022-08-31T16:54:28.681Z,0.88
2022-08-31T16:56:57.540Z,1.00
2022-08-31T16:59:27.076Z,0.90
2022-08-31T17:01:54.076Z,0.90
2022-08-31T17:04:48.079Z,0.85
2022-08-31T17:07:11.973Z,0.88
2022-08-31T17:09:39.432Z,0.90
2022-08-31T17:12:12.072Z,0.80
2022-08-31T17:14:46.562Z,0.70
2022-08-31T17:17:15.887Z,0.77
2022-08-31T17:19:44.394Z,0.85
2022-08-31T17:22:16.927Z,0.90
2022-08-31T17:24:45.356Z,1.00
2022-08-31T17:27:18.372Z,0.90
2022-08-31T17:29:51.088Z,0.80
2022-08-31T17:32:20.628Z,0.90
2022-08-31T17:34:51.497Z,0.82
2022-08-31T17:37:22.992Z,0.93
2022-08-31T17:39:52.904Z,0.90
2022-08-31T17:42:24.848Z,0.93
2022-08-31T17:44:52.521Z,0.90
2022-08-31T17:47:20.873Z,0.85
2022-08-31T17:49:47.518Z,0.80
2022-08-31T17:52:14.206Z,0.88
2022-08-31T17:54:43.176Z,0.80
2022-08-31T17:57:13.037Z,0.80
2022-08-31T17:59:42.005Z,0.80
2022-08-31T18:02:11.961Z,0.90
2022-08-31T18:04:39.452Z,0.80
2022-08-31T18:07:07.827Z,0.80
2022-08-31T18:09:38.957Z,0.90
2022-08-31T18:12:06.320Z,0.95
2022-08-31T18:14:34.706Z,1.00
2022-08-31T18:17:03.804Z,1.05
2022-08-31T18:19:32.416Z,0.90
2022-08-31T18:21:59.899Z,1.00
2022-08-31T18:24:27.524Z,0.90
2022-08-31T18:26:54.446Z,0.70
2022-08-31T18:29:25.033Z,1.00
2022-08-31T18:31:53.983Z,0.98
2022-08-31T18:34:23.354Z,0.90
2022-08-31T18:36:51.753Z,0.95
2022-08-31T18:39:41.088Z,1.00
2022-08-31T18:42:27.416Z,1.00
2022-08-31T18:45:12.660Z,0.93
2022-08-31T18:47:39.173Z,0.90
2022-08-31T18:50:06.159Z,0.90
2022-08-31T18:52:32.697Z,0.90
2022-08-31T18:54:59.853Z,0.95
2022-08-31T18:57:27.860Z,1.00
2022-08-31T18:59:55.693Z,0.95
2022-08-31T19:02:22.991Z,0.90
2022-08-31T19:04:51.144Z,1.10
2022-08-31T19:07:18.920Z,0.98
2022-08-31T19:09:45.921Z,1.10
2022-08-31T19:12:19.461Z,0.90
2022-08-31T19:14:50.411Z,1.20
2022-08-31T19:17:20.569Z,0.90
2022-08-31T19:19:48.644Z,0.90
2022-08-31T19:22:16.649Z,0.88
2022-08-31T19:24:44.986Z,1.00
2022-08-31T19:27:13.921Z,0.90
2022-08-31T19:29:41.514Z,0.90
2022-08-31T19:32:08.785Z,1.00
2022-08-31T19:34:38.326Z,1.23
2022-08-31T19:37:07.024Z,1.15
2022-08-31T19:39:37.241Z,1.25
2022-08-31T19:42:07.503Z,1.10
2022-08-31T19:47:25.287Z,1.00
2022-08-31T19:49:52.876Z,1.00
2022-08-31T19:52:20.204Z,1.27
2022-08-31T19:54:48.482Z,1.30
2022-08-31T19:57:16.353Z,1.20
2022-08-31T19:59:42.959Z,1.00
2022-08-31T20:02:09.562Z,1.15
2022-08-31T20:04:36.409Z,1.00
2022-08-31T20:07:06.331Z,0.90
2022-08-31T20:09:34.424Z,1.00
2022-08-31T20:12:02.044Z,1.17
2022-08-31T20:14:28.625Z,1.10
2022-08-31T20:16:55.297Z,1.00
2022-08-31T20:19:24.717Z,1.10
2022-08-31T20:21:54.017Z,1.10
2022-08-31T20:24:24.614Z,1.10
2022-08-31T20:26:52.358Z,1.15
2022-08-31T20:29:20.496Z,1.05
2022-08-31T20:31:50.293Z,1.00
2022-08-31T20:34:19.102Z,0.90
2022-08-31T20:36:48.265Z,1.10
2022-08-31T20:39:17.548Z,0.90
2022-08-31T20:41:47.130Z,1.15
2022-08-31T20:44:22.878Z,1.23
2022-08-31T20:47:11.236Z,1.05
2022-08-31T20:49:41.222Z,1.20
2022-08-31T20:52:09.706Z,1.05
2022-08-31T20:54:37.322Z,1.20
2022-08-31T20:57:05.581Z,1.00
2022-08-31T20:59:33.629Z,1.17
2022-08-31T21:02:03.316Z,1.20
2022-08-31T21:04:31.069Z,1.15
2022-08-31T21:06:59.619Z,1.17
2022-08-31T21:09:26.853Z,1.10
2022-08-31T21:11:56.476Z,1.40
2022-08-31T21:14:27.094Z,1.20
2022-08-31T21:16:55.545Z,1.40
2022-08-31T21:19:23.856Z,1.15
2022-08-31T21:21:52.838Z,1.25
2022-08-31T21:24:21.522Z,1.10
2022-08-31T21:26:49.080Z,1.10
2022-08-31T21:29:17.961Z,1.10
2022-08-31T21:31:58.267Z,1.17
2022-08-31T21:34:29.326Z,1.15
2022-08-31T21:36:55.863Z,1.20
2022-08-31T21:39:23.380Z,1.30
2022-08-31T21:41:50.640Z,1.20
2022-08-31T21:44:20.960Z,1.20
2022-08-31T21:46:50.793Z,1.40
2022-08-31T21:49:19.128Z,1.23
2022-08-31T21:51:52.871Z,1.35
2022-08-31T21:54:22.468Z,1.15
2022-08-31T21:56:55.520Z,1.10
2022-08-31T21:59:24.559Z,1.05
2022-08-31T22:01:57.280Z,1.17
2022-08-31T22:04:23.903Z,1.10
2022-08-31T22:06:50.532Z,1.05
2022-08-31T22:09:19.497Z,1.30
2022-08-31T22:11:50.647Z,1.10
2022-08-31T22:14:20.059Z,1.20
2022-08-31T22:16:48.165Z,1.00
2022-08-31T22:19:20.739Z,1.05
2022-08-31T22:21:51.225Z,1.02
2022-08-31T22:24:27.668Z,1.25
2022-08-31T22:26:56.660Z,0.98
2022-08-31T22:29:26.123Z,1.15
2022-08-31T22:31:57.835Z,0.93
2022-08-31T22:34:24.984Z,1.10
2022-08-31T22:36:53.144Z,1.20
2022-08-31T22:39:24.003Z,1.10
2022-08-31T22:41:51.867Z,1.23
2022-08-31T22:44:21.272Z,1.20
2022-08-31T22:46:48.372Z,1.00
2022-08-31T22:49:15.152Z,1.00
2022-08-31T22:51:43.119Z,1.25
2022-08-31T22:54:10.767Z,1.30
2022-08-31T22:56:38.849Z,0.90
2022-08-31T22:59:12.490Z,1.20
2022-08-31T23:01:42.988Z,1.15
2022-08-31T23:04:12.678Z,1.17
2022-08-31T23:06:39.754Z,1.00
2022-08-31T23:09:08.712Z,1.13
2022-08-31T23:11:36.059Z,1.00
2022-08-31T23:14:07.513Z,1.10
2022-08-31T23:16:40.572Z,1.08
2022-08-31T23:19:12.397Z,1.00
2022-08-31T23:21:46.769Z,1.10
2022-08-31T23:24:26.789Z,1.00
2022-08-31T23:26:53.551Z,1.10
2022-08-31T23:29:21.707Z,1.00
2022-08-31T23:31:48.730Z,1.10
2022-08-31T23:34:16.748Z,1.20
2022-08-31T23:36:49.244Z,0.90
2022-08-31T23:39:18.690Z,1.13
2022-08-31T23:41:45.496Z,1.20
2022-08-31T23:44:13.027Z,1.20
2022-08-31T23:46:41.193Z,1.05
2022-08-31T23:49:10.484Z,1.17
2022-08-31T23:51:38.316Z,1.02
2022-08-31T23:54:07.896Z,1.13
2022-08-31T23:56:40.785Z,1.10
2022-08-31T23:59:14.084Z,1.30
